Time;durP1;ratioP1;P1;durP2;ratioP2;P2;SDS_P1;SDS_P2;PMS_P1;PMS_P2;Temp;Humidity;BMP_temperature;BMP_pressure;BME280_temperature;BME280_humidity;BME280_pressure;Samples;Min_cycle;Max_cycle;Signal;HPM_P1;HPM_P2
2022/12/13 00:01:39;;;;;;;7.80;4.20;;;16.50;71.40;;;17.79;38.47;97998.31;5050339;28;20133;-73
2022/12/13 00:04:06;;;;;;;6.78;4.22;;;16.40;71.10;;;17.81;38.69;98006.19;5038736;28;20617;-73
2022/12/13 00:06:32;;;;;;;5.43;3.80;;;16.40;71.50;;;17.82;38.62;98003.13;5054022;28;20036;-72
2022/12/13 00:08:58;;;;;;;6.15;4.30;;;16.50;71.40;;;17.83;39.06;98001.97;5014438;28;20124;-72
2022/12/13 00:11:25;;;;;;;6.68;4.72;;;16.50;71.70;;;17.78;38.77;98005.72;5039430;28;20098;-72
2022/12/13 00:13:51;;;;;;;6.57;5.00;;;16.50;71.20;;;17.82;38.42;97999.59;5038507;28;20447;-72
2022/12/13 00:16:21;;;;;;;4.95;4.18;;;16.40;71.30;;;17.84;38.63;98000.84;5033898;28;20121;-72
2022/12/13 00:18:52;;;;;;;7.10;4.53;;;16.40;71.30;;;17.86;38.54;97998.56;5020710;28;20051;-72
2022/12/13 00:21:19;;;;;;;6.15;4.20;;;16.50;71.10;;;17.88;38.66;97993.53;5037045;28;20044;-72
2022/12/13 00:23:48;;;;;;;7.15;3.67;;;16.40;71.20;;;17.89;38.35;97992.41;5035554;28;20049;-72
2022/12/13 00:26:19;;;;;;;3.70;3.40;;;16.50;71.20;;;17.81;38.67;97998.78;5056633;28;20444;-72
2022/12/13 00:28:48;;;;;;;6.45;4.32;;;16.50;71.60;;;17.84;38.54;97997.31;5017883;28;20049;-72
2022/12/13 00:31:15;;;;;;;6.72;4.65;;;16.50;71.10;;;17.88;38.51;97999.00;5053497;28;20385;-72
2022/12/13 00:33:41;;;;;;;5.50;3.95;;;16.50;71.20;;;17.89;38.50;97997.09;5036477;28;20091;-72
2022/12/13 00:36:08;;;;;;;4.60;3.83;;;16.50;71.10;;;17.86;38.46;98009.56;5039523;28;20070;-72
2022/12/13 00:38:34;;;;;;;5.43;4.22;;;16.50;71.20;;;17.84;38.67;98006.34;5053918;28;20056;-72
2022/12/13 00:41:12;;;;;;;6.07;3.97;;;16.40;71.60;;;17.96;38.48;98006.34;5022072;28;20036;-72
2022/12/13 00:43:38;;;;;;;6.25;4.65;;;16.40;71.80;;;17.96;38.40;98014.59;5035876;28;20091;-72
2022/12/13 00:46:16;;;;;;;5.88;4.15;;;16.40;71.50;;;17.89;38.51;98022.56;5038528;28;20387;-72
2022/12/13 00:48:42;;;;;;;5.45;3.85;;;16.50;71.40;;;17.99;38.31;98022.13;5046827;28;20103;-72
2022/12/13 00:51:09;;;;;;;5.43;3.90;;;16.50;71.10;;;18.00;38.26;98025.66;5036529;28;20029;-72
2022/12/13 00:53:35;;;;;;;7.57;4.38;;;16.50;71.10;;;18.03;38.23;98035.16;5019806;28;20095;-72
2022/12/13 00:56:02;;;;;;;4.45;3.30;;;16.50;71.20;;;18.08;38.59;98038.47;5015358;28;20431;-72
2022/12/13 00:58:28;;;;;;;6.72;4.00;;;16.50;71.50;;;18.09;38.63;98037.34;5053643;28;20117;-72
2022/12/13 01:01:08;;;;;;;4.35;3.72;;;16.60;71.40;;;18.06;38.14;98043.50;5071827;28;20376;-72
2022/12/13 01:03:34;;;;;;;4.57;3.70;;;16.60;71.30;;;18.10;38.27;98036.19;5036767;28;20036;-72
2022/12/13 01:06:01;;;;;;;4.68;4.03;;;16.70;71.10;;;18.12;38.03;98036.66;5037056;28;20484;-72
2022/12/13 01:08:27;;;;;;;5.90;3.78;;;16.70;71.10;;;18.15;38.24;98035.19;5053999;28;20111;-72
2022/12/13 01:10:54;;;;;;;4.55;3.60;;;16.70;71.00;;;18.15;38.48;98035.97;5040796;28;20098;-73
2022/12/13 01:13:20;;;;;;;4.53;3.80;;;16.70;71.20;;;18.15;38.35;98027.75;5054929;28;20086;-72
2022/12/13 01:15:46;;;;;;;3.97;3.50;;;16.70;71.30;;;18.21;38.34;98033.81;5021155;28;20460;-72
2022/12/13 01:18:13;;;;;;;3.38;3.08;;;16.60;71.20;;;18.20;38.28;98034.94;5018238;28;20090;-73
2022/12/13 01:20:39;;;;;;;4.97;3.45;;;16.70;71.30;;;18.22;37.95;98032.69;5023166;28;20040;-72
2022/12/13 01:23:05;;;;;;;3.60;3.05;;;16.70;71.20;;;18.24;38.17;98030.34;5022183;28;20460;-72
2022/12/13 01:25:32;;;;;;;3.88;3.25;;;16.80;71.00;;;18.20;38.14;98032.22;5041772;28;20040;-72
2022/12/13 01:28:01;;;;;;;3.88;3.38;;;16.90;70.90;;;18.28;38.73;98036.78;5058341;28;20055;-72
2022/12/13 01:30:27;;;;;;;6.28;3.70;;;16.80;71.20;;;18.33;38.28;98038.50;5057473;28;20043;-72
2022/12/13 01:32:53;;;;;;;7.00;3.80;;;16.70;71.40;;;18.31;38.40;98041.56;5055172;28;20040;-72
2022/12/13 01:35:19;;;;;;;4.80;3.60;;;16.70;71.40;;;18.31;38.10;98044.31;5050293;28;20480;-72
2022/12/13 01:37:45;;;;;;;3.65;3.22;;;16.70;71.30;;;18.26;38.22;98044.56;5074059;28;20079;-72
2022/12/13 01:40:12;;;;;;;5.35;4.00;;;16.80;71.20;;;18.29;38.24;98045.81;5034323;28;20043;-72
2022/12/13 01:42:39;;;;;;;4.18;3.08;;;16.80;71.10;;;18.28;38.15;98049.72;5060167;28;20032;-72
2022/12/13 01:45:20;;;;;;;4.75;3.45;;;16.90;71.10;;;18.37;38.12;98051.19;5050297;28;20055;-72
2022/12/13 01:47:55;;;;;;;4.72;3.20;;;16.90;71.50;;;18.37;37.94;98050.41;5039713;28;20561;-72
2022/12/13 01:50:29;;;;;;;3.25;2.65;;;16.80;71.20;;;18.32;38.16;98056.94;5040572;28;20408;-72
2022/12/13 01:52:55;;;;;;;5.30;3.53;;;16.80;71.30;;;18.37;38.04;98051.19;5055419;28;20108;-72
2022/12/13 01:55:21;;;;;;;3.40;3.10;;;16.80;71.20;;;18.27;38.26;98054.41;5041667;28;20483;-72
2022/12/13 01:57:47;;;;;;;3.63;3.25;;;16.80;71.30;;;18.33;38.41;98063.22;5033020;28;20048;-73
2022/12/13 02:00:14;;;;;;;4.65;2.95;;;16.80;71.20;;;18.38;38.12;98065.72;5037100;28;20770;-72
2022/12/13 02:02:40;;;;;;;5.60;3.70;;;16.80;71.30;;;18.39;38.18;98059.91;5024921;28;20502;-73
2022/12/13 02:05:27;;;;;;;3.78;3.40;;;16.80;71.60;;;18.38;38.08;98062.97;5037926;28;20132;-72
2022/12/13 02:07:53;;;;;;;6.05;3.92;;;16.80;71.20;;;18.37;37.94;98067.69;5051913;28;20728;-72
2022/12/13 02:10:19;;;;;;;4.78;2.78;;;16.80;71.30;;;18.38;37.96;98072.00;5020363;28;20051;-74
2022/12/13 02:12:45;;;;;;;3.53;3.22;;;16.80;71.20;;;18.36;38.00;98077.03;5022825;28;20040;-72
2022/12/13 02:15:15;;;;;;;4.07;3.17;;;16.90;71.30;;;18.41;38.23;98079.56;5020739;28;20130;-72
2022/12/13 02:18:04;;;;;;;3.33;2.63;;;16.80;72.40;;;18.48;38.17;98081.75;5043388;28;20048;-72
2022/12/13 02:21:12;;;;;;;4.20;2.78;;;16.80;71.80;;;18.41;38.12;98076.81;5041813;28;20040;-72
2022/12/13 02:24:08;;;;;;;4.05;2.72;;;16.80;71.50;;;18.40;37.96;98077.19;5056764;28;20122;-72
2022/12/13 02:27:05;;;;;;;3.13;2.75;;;16.80;71.50;;;18.39;37.91;98083.78;5054017;28;20041;-72
2022/12/13 02:30:08;;;;;;;3.65;3.10;;;16.80;71.50;;;18.40;38.19;98077.97;5057566;28;20124;-72
2022/12/13 02:32:56;;;;;;;4.07;3.15;;;16.80;71.50;;;18.47;38.33;98082.06;5069441;28;20148;-72
2022/12/13 02:35:27;;;;;;;3.08;2.83;;;16.70;71.70;;;18.47;38.21;98082.06;5056523;28;20539;-72
2022/12/13 02:38:17;;;;;;;3.30;3.00;;;16.80;71.80;;;18.41;38.28;98089.75;5039356;28;20388;-73
2022/12/13 02:41:19;;;;;;;3.90;3.17;;;16.80;71.50;;;18.42;38.16;98080.38;5007415;28;20087;-72
2022/12/13 02:44:13;;;;;;;4.32;3.20;;;16.80;71.40;;;18.34;38.02;98087.59;5040222;28;20060;-72
2022/12/13 02:46:47;;;;;;;5.55;3.45;;;16.70;71.40;;;18.44;37.88;98089.88;5040125;28;20071;-72
2022/12/13 02:49:15;;;;;;;5.53;3.40;;;16.60;71.80;;;18.48;38.21;98094.69;5022992;28;20036;-72
2022/12/13 02:51:41;;;;;;;4.40;3.15;;;16.70;71.80;;;18.46;38.15;98092.25;5022910;28;20182;-72
2022/12/13 02:54:08;;;;;;;6.05;2.67;;;16.80;71.60;;;18.39;38.02;98098.34;5054372;28;20036;-72
2022/12/13 02:56:34;;;;;;;3.78;2.83;;;16.80;72.10;;;18.38;38.19;98088.50;5072999;28;20040;-72
2022/12/13 02:59:02;;;;;;;2.72;2.45;;;16.70;71.30;;;18.38;37.99;98090.44;5051515;28;20056;-72
2022/12/13 03:01:48;;;;;;;3.47;2.97;;;16.70;71.40;;;18.36;38.38;98098.22;5018443;28;20044;-72
2022/12/13 03:04:26;;;;;;;3.20;2.70;;;16.70;72.20;;;18.40;38.26;98099.94;5051361;28;20052;-72
2022/12/13 03:07:18;;;;;;;4.00;2.83;;;16.70;71.80;;;18.44;38.21;98097.28;5054736;28;20044;-72
2022/12/13 03:10:07;;;;;;;;;;;16.80;71.80;;;18.35;38.05;98097.41;5037446;28;20044;-72
2022/12/13 03:15:34;;;;;;;4.40;3.03;;;16.70;71.40;;;18.32;37.92;98098.09;5030393;28;20396;-72
2022/12/13 03:18:14;;;;;;;3.08;2.63;;;16.70;71.40;;;18.33;38.32;98102.44;5028285;28;20133;-72
2022/12/13 03:21:00;;;;;;;3.03;2.50;;;16.70;71.50;;;18.43;38.43;98099.25;5021791;28;20044;-72
2022/12/13 03:23:27;;;;;;;3.28;2.88;;;16.70;71.90;;;18.41;38.11;98101.53;5019289;28;20052;-72
2022/12/13 03:26:10;;;;;;;3.08;2.88;;;16.80;71.70;;;18.36;37.95;98103.69;5017171;28;20481;-72
2022/12/13 03:28:36;;;;;;;3.17;2.88;;;16.70;71.30;;;18.32;38.28;98103.59;5016394;28;20049;-72
2022/12/13 03:31:03;;;;;;;3.60;2.85;;;16.70;71.40;;;18.28;38.24;98116.38;5008499;28;20504;-72
2022/12/13 03:33:29;;;;;;;3.25;2.65;;;16.70;71.50;;;18.33;37.90;98113.44;5022296;28;20084;-72
2022/12/13 03:35:55;;;;;;;4.05;3.05;;;16.70;71.50;;;18.32;38.50;98120.06;5004635;28;20037;-72
2022/12/13 03:38:21;;;;;;;4.40;2.95;;;16.70;71.70;;;18.40;38.38;98121.09;4986216;28;20045;-72
2022/12/13 03:40:47;;;;;;;4.32;2.63;;;16.70;71.80;;;18.36;38.12;98111.94;5035585;28;20045;-73
2022/12/13 03:43:13;;;;;;;2.90;2.70;;;16.70;71.50;;;18.30;38.20;98110.56;5020287;28;20050;-72
2022/12/13 03:45:39;;;;;;;3.72;2.67;;;16.70;71.50;;;18.33;38.21;98115.38;5038886;28;21376;-72
2022/12/13 03:48:06;;;;;;;3.08;2.78;;;16.60;71.60;;;18.32;38.04;98113.75;5039880;28;20037;-72
2022/12/13 03:50:32;;;;;;;3.40;2.42;;;16.60;71.60;;;18.32;38.21;98122.81;5025630;28;20047;-72
2022/12/13 03:52:59;;;;;;;5.68;3.50;;;16.60;71.60;;;18.29;38.53;98114.44;5043547;28;20033;-72
2022/12/13 03:55:26;;;;;;;4.50;3.20;;;16.60;72.00;;;18.33;38.16;98124.41;5004583;28;20044;-72
2022/12/13 03:57:52;;;;;;;2.88;2.53;;;16.60;72.00;;;18.29;38.28;98114.44;5019513;28;20033;-72
2022/12/13 04:00:19;;;;;;;3.55;2.63;;;16.60;71.90;;;18.29;38.07;98119.94;5037156;28;20037;-72
2022/12/13 04:02:45;;;;;;;2.65;2.42;;;16.60;71.70;;;18.24;37.94;98118.19;5042042;28;20037;-72
2022/12/13 04:05:11;;;;;;;3.33;2.83;;;16.70;71.30;;;18.19;37.72;98122.00;5045658;28;20090;-72
2022/12/13 04:07:37;;;;;;;3.05;2.55;;;16.80;70.70;;;18.27;37.86;98125.78;5038392;28;20056;-72
2022/12/13 04:10:04;;;;;;;4.35;2.88;;;16.70;70.80;;;18.27;38.31;98117.53;5072280;28;20488;-72
2022/12/13 04:15:15;;;;;;;3.55;2.50;;;16.60;71.40;;;18.22;38.09;98126.78;5068142;28;20128;-72
2022/12/13 04:17:41;;;;;;;4.03;3.00;;;16.60;71.30;;;18.16;38.01;98132.84;5049705;28;20051;-72
2022/12/13 04:20:08;;;;;;;4.13;2.78;;;16.60;71.00;;;18.19;37.86;98127.47;5019877;28;20040;-72
2022/12/13 04:22:34;;;;;;;2.75;2.47;;;16.60;71.00;;;18.08;38.11;98123.56;5034633;28;20139;-73
2022/12/13 04:25:01;;;;;;;2.85;2.55;;;16.60;70.70;;;18.06;37.59;98127.78;5019053;28;20044;-73
2022/12/13 04:27:26;;;;;;;2.85;1.95;;;16.70;69.90;;;18.11;37.53;98135.78;5032189;28;20040;-73
2022/12/13 04:29:53;;;;;;;7.30;2.58;;;16.60;69.50;;;18.11;37.25;98141.28;5066030;28;20052;-72
2022/12/13 04:32:19;;;;;;;2.92;2.30;;;16.60;69.70;;;18.16;37.26;98138.31;5032231;28;20036;-72
2022/12/13 04:34:45;;;;;;;2.92;2.67;;;16.60;69.60;;;18.07;37.40;98141.16;5070134;28;20044;-72
2022/12/13 04:37:11;;;;;;;3.08;2.60;;;16.50;69.70;;;17.99;37.29;98136.59;5048825;28;20033;-72
2022/12/13 04:39:37;;;;;;;3.13;2.80;;;16.60;69.30;;;18.13;37.42;98142.53;5051264;28;20488;-72
2022/12/13 04:42:03;;;;;;;2.70;2.40;;;16.70;69.50;;;18.24;37.44;98137.41;5018320;28;20054;-72
2022/12/13 04:44:29;;;;;;;3.65;2.50;;;16.70;69.60;;;18.18;37.65;98136.84;5035587;28;20051;-72
2022/12/13 04:46:56;;;;;;;5.00;2.80;;;16.70;70.00;;;18.14;37.11;98146.91;5045963;28;20512;-72
2022/12/13 04:49:22;;;;;;;3.03;2.13;;;16.60;69.60;;;18.11;37.28;98139.34;5035301;28;20249;-71
2022/12/13 04:51:48;;;;;;;3.78;2.42;;;16.50;69.80;;;18.08;37.29;98134.53;5033465;28;20036;-72
2022/12/13 04:54:14;;;;;;;3.65;2.75;;;16.50;69.80;;;18.06;37.31;98136.00;5034716;28;20480;-72
2022/12/13 04:56:40;;;;;;;2.83;2.15;;;16.50;69.60;;;18.16;37.28;98143.81;5018308;28;20041;-72
2022/12/13 04:59:06;;;;;;;3.22;2.55;;;16.50;69.90;;;18.14;37.34;98143.34;5040806;28;20793;-71
2022/12/13 05:01:33;;;;;;;3.25;2.55;;;16.60;70.00;;;18.18;37.36;98141.53;5072958;28;20123;-71
2022/12/13 05:04:02;;;;;;;3.70;2.75;;;16.60;70.00;;;18.11;37.60;98144.81;5058046;28;20117;-71
2022/12/13 05:06:28;;;;;;;2.45;2.28;;;16.50;70.00;;;17.99;37.34;98151.09;5055677;28;20173;-72
2022/12/13 05:08:54;;;;;;;2.60;2.40;;;16.60;69.60;;;18.04;37.08;98143.78;5040553;28;20051;-72
2022/12/13 05:11:20;;;;;;;2.63;2.38;;;16.60;69.40;;;18.03;36.95;98144.94;5055681;28;20032;-71
2022/12/13 05:13:46;;;;;;;2.97;2.38;;;16.60;69.00;;;18.05;37.55;98148.16;5015770;28;20039;-71
2022/12/13 05:16:14;;;;;;;2.65;2.45;;;16.50;69.90;;;18.13;37.17;98150.78;5056121;28;20044;-71
2022/12/13 05:18:41;;;;;;;3.38;2.97;;;16.60;70.00;;;18.04;37.21;98147.34;5045821;28;20094;-71
2022/12/13 05:21:08;;;;;;;2.53;2.33;;;16.50;69.60;;;17.99;37.16;98153.06;5041372;28;20037;-71
2022/12/13 05:23:35;;;;;;;2.38;2.17;;;16.50;69.70;;;17.99;37.03;98144.81;5023443;28;20461;-72
2022/12/13 05:26:01;;;;;;;2.55;2.15;;;16.50;69.30;;;17.98;37.08;98149.47;5025800;28;20045;-72
2022/12/13 05:28:28;;;;;;;2.80;2.58;;;16.50;69.20;;;18.00;37.25;98149.16;5042975;28;20036;-72
2022/12/13 05:30:55;;;;;;;3.92;2.38;;;16.50;69.50;;;18.05;37.20;98153.63;5033200;28;20112;-72
2022/12/13 05:33:22;;;;;;;2.70;2.50;;;16.40;69.80;;;18.03;37.36;98155.91;5038579;28;20063;-72
2022/12/13 05:35:48;;;;;;;2.67;2.45;;;16.40;70.10;;;17.99;37.28;98151.09;5023823;28;20055;-72
2022/12/13 05:38:14;;;;;;;4.65;2.80;;;16.40;69.80;;;17.99;36.96;98142.88;5055499;28;20044;-72
2022/12/13 05:40:40;;;;;;;2.72;2.38;;;16.50;69.50;;;17.97;37.33;98147.88;5026272;28;20135;-72
2022/12/13 05:43:07;;;;;;;2.78;2.30;;;16.50;69.40;;;17.94;36.92;98158.75;5070580;28;20044;-72
2022/12/13 05:45:33;;;;;;;2.20;2.00;;;16.50;69.10;;;17.98;37.50;98157.72;5022403;28;20053;-72
2022/12/13 05:48:00;;;;;;;3.33;2.75;;;16.50;69.40;;;17.99;37.55;98150.31;5011470;28;20129;-72
2022/12/13 05:50:27;;;;;;;2.53;2.33;;;16.50;69.90;;;17.97;37.13;98156.13;5053894;28;20087;-72
2022/12/13 05:52:53;;;;;;;2.80;2.08;;;16.40;69.80;;;17.95;37.03;98160.34;5074124;28;20078;-72
2022/12/13 05:55:19;;;;;;;2.90;2.63;;;16.40;69.70;;;17.96;37.18;98160.00;5071333;28;20033;-72
2022/12/13 05:57:45;;;;;;;2.70;2.50;;;16.40;69.60;;;17.91;37.48;98154.75;5013048;28;20447;-72
2022/12/13 06:00:12;;;;;;;3.28;2.53;;;16.40;69.70;;;17.91;37.34;98160.22;5027765;28;20090;-72
2022/12/13 06:02:39;;;;;;;2.60;2.40;;;16.40;69.60;;;17.93;37.60;98168.91;5068609;28;20047;-72
2022/12/13 06:05:08;;;;;;;3.22;2.83;;;16.40;70.00;;;17.96;37.42;98161.94;5007105;28;20100;-72
2022/12/13 06:07:34;;;;;;;5.32;2.85;;;16.30;70.20;;;17.94;37.63;98167.78;5035545;28;20405;-72
2022/12/13 06:10:01;;;;;;;2.28;2.08;;;16.30;70.60;;;17.91;37.33;98162.97;5018315;28;20047;-71
2022/12/13 06:12:27;;;;;;;2.88;2.67;;;16.40;70.10;;;17.90;37.54;98161.34;5020160;28;20476;-72
2022/12/13 06:14:53;;;;;;;2.80;2.50;;;16.30;70.10;;;17.89;37.28;98168.00;5038727;28;20071;-73
2022/12/13 06:17:23;;;;;;;4.13;2.65;;;16.30;69.90;;;17.91;37.32;98165.72;5051462;28;20669;-72
2022/12/13 06:19:50;;;;;;;4.28;2.70;;;16.30;69.90;;;17.93;37.50;98174.38;5018816;28;20041;-72
2022/12/13 06:22:17;;;;;;;3.17;2.35;;;16.30;70.60;;;17.92;37.88;98170.06;5033503;28;20103;-72
2022/12/13 06:24:43;;;;;;;3.03;2.42;;;16.30;70.70;;;17.89;37.56;98176.22;5034791;28;20052;-72
2022/12/13 06:27:09;;;;;;;2.40;2.20;;;16.30;70.60;;;17.85;37.34;98175.28;5035957;28;20443;-72
2022/12/13 06:29:35;;;;;;;4.32;1.80;;;16.30;70.20;;;17.82;37.57;98177.91;5032618;28;20051;-72
2022/12/13 06:32:02;;;;;;;2.83;2.38;;;16.20;70.10;;;17.82;37.61;98180.66;5025245;28;20520;-72
2022/12/13 06:34:32;;;;;;;3.55;2.88;;;16.20;70.30;;;17.83;37.65;98182.25;5031622;28;20053;-72
2022/12/13 06:36:58;;;;;;;3.80;2.60;;;16.30;70.70;;;17.88;38.03;98182.03;4995937;28;20037;-72
2022/12/13 06:39:24;;;;;;;4.10;2.85;;;16.20;70.90;;;17.89;38.08;98187.19;5048684;28;20041;-72
2022/12/13 06:41:50;;;;;;;3.40;2.67;;;16.10;71.20;;;17.82;37.79;98192.41;5049526;28;20045;-71
2022/12/13 06:44:16;;;;;;;2.40;2.20;;;16.20;70.80;;;17.83;38.00;98191.25;5047228;28;20090;-72
2022/12/13 06:46:42;;;;;;;2.88;2.25;;;16.20;70.40;;;17.83;37.63;98191.25;5047008;28;20505;-72
2022/12/13 06:49:08;;;;;;;3.65;2.60;;;16.20;70.40;;;17.81;37.46;98193.56;5032968;28;20374;-72
2022/12/13 06:51:35;;;;;;;2.67;2.47;;;16.20;70.30;;;17.82;37.98;98199.84;5048321;28;20484;-72
2022/12/13 06:54:01;;;;;;;3.70;2.45;;;16.20;70.90;;;17.79;38.15;98201.28;5015393;28;20051;-72
2022/12/13 06:56:28;;;;;;;2.42;2.17;;;16.20;71.10;;;17.84;37.91;98201.13;5002058;28;20051;-72
2022/12/13 06:58:54;;;;;;;2.65;2.40;;;16.20;71.00;;;17.80;37.71;98197.44;5020769;28;20507;-72
2022/12/13 07:01:20;;;;;;;3.63;2.72;;;16.10;70.60;;;17.71;37.91;98202.97;5014751;28;20037;-72
2022/12/13 07:03:46;;;;;;;3.70;2.72;;;16.10;70.60;;;17.71;37.95;98204.91;5021482;28;20429;-72
2022/12/13 07:06:18;;;;;;;4.07;2.67;;;16.20;70.60;;;17.76;38.16;98207.47;5046843;28;20146;-72
2022/12/13 07:08:49;;;;;;;3.05;2.60;;;16.10;70.60;;;17.79;38.16;98207.59;5037529;28;20188;-72
2022/12/13 07:11:16;;;;;;;2.83;2.33;;;16.00;71.30;;;17.79;38.29;98213.09;5066726;28;20328;-71
2022/12/13 07:13:42;;;;;;;8.50;2.53;;;16.10;71.50;;;17.75;38.25;98217.59;5035930;28;20036;-71
2022/12/13 07:16:09;;;;;;;3.28;2.42;;;16.10;71.00;;;17.74;38.10;98221.50;5032511;28;20044;-71
2022/12/13 07:18:36;;;;;;;2.67;2.42;;;16.20;70.80;;;17.68;38.18;98219.28;5048857;28;20052;-71
2022/12/13 07:21:07;;;;;;;3.28;2.33;;;16.20;70.60;;;17.68;37.94;98225.59;5018632;28;20041;-71
2022/12/13 07:23:34;;;;;;;3.55;2.78;;;16.10;70.50;;;17.75;38.17;98225.81;5018016;28;20036;-71
2022/12/13 07:26:01;;;;;;;3.25;2.45;;;16.20;71.00;;;17.72;38.26;98229.25;5017270;28;20041;-71
2022/12/13 07:28:27;;;;;;;3.90;3.28;;;16.10;71.10;;;17.73;38.40;98236.34;5015322;28;20131;-71
2022/12/13 07:30:54;;;;;;;5.03;2.97;;;16.00;71.70;;;17.72;38.12;98228.44;5031343;28;20044;-71
2022/12/13 07:33:20;;;;;;;7.53;3.70;;;16.00;71.20;;;17.66;37.93;98230.59;5046949;28;20124;-71
2022/12/13 07:35:49;;;;;;;3.45;2.70;;;16.00;71.00;;;17.67;38.19;98236.88;5037930;28;20082;-72
2022/12/13 07:38:15;;;;;;;2.88;2.60;;;16.00;70.70;;;17.65;38.23;98230.91;5035404;28;20044;-72
2022/12/13 07:40:41;;;;;;;4.43;3.10;;;16.10;70.80;;;17.74;37.75;98243.44;5051117;28;20046;-72
2022/12/13 07:43:08;;;;;;;3.50;3.05;;;16.00;71.00;;;17.76;38.11;98232.94;5034788;28;20037;-72
2022/12/13 07:45:35;;;;;;;3.83;3.00;;;16.00;71.30;;;17.71;38.05;98246.06;5049328;28;20049;-72
2022/12/13 07:48:05;;;;;;;2.88;2.38;;;15.90;71.30;;;17.67;38.20;98242.38;5048192;28;20047;-72
2022/12/13 07:50:32;;;;;;;2.93;2.60;;;16.00;71.30;;;17.60;38.25;98242.88;5068616;28;20703;-72
2022/12/13 07:53:02;;;;;;;3.22;2.33;;;16.00;71.00;;;17.60;38.10;98242.09;5051829;28;20379;-72
2022/12/13 07:55:28;;;;;;;4.53;2.85;;;16.00;70.90;;;17.67;37.99;98243.16;5050001;28;20563;-72
2022/12/13 07:57:54;;;;;;;4.35;2.90;;;16.00;71.10;;;17.70;38.31;98244.44;5049839;28;20048;-72
2022/12/13 08:00:21;;;;;;;3.67;2.58;;;15.90;71.30;;;17.73;37.79;98247.34;5044159;28;20476;-72
2022/12/13 08:02:47;;;;;;;5.20;3.15;;;15.90;71.50;;;17.68;37.93;98242.03;5065725;28;20067;-72
2022/12/13 08:05:13;;;;;;;3.70;2.78;;;15.90;71.30;;;17.68;38.05;98249.44;5049679;28;20527;-72
2022/12/13 08:07:39;;;;;;;3.40;3.10;;;16.00;71.30;;;17.67;37.85;98247.84;5067703;28;20036;-72
2022/12/13 08:10:06;;;;;;;2.45;2.08;;;15.90;71.10;;;17.63;37.82;98244.97;5032685;28;20045;-72
2022/12/13 08:12:33;;;;;;;5.57;3.10;;;15.90;71.00;;;17.67;38.02;98247.84;5068224;28;20044;-72
2022/12/13 08:14:59;;;;;;;4.63;3.35;;;15.90;71.20;;;17.75;37.69;98249.72;5049375;28;20490;-72
2022/12/13 08:17:25;;;;;;;3.70;2.90;;;15.80;71.40;;;17.79;37.64;98250.66;5047656;28;20047;-72
2022/12/13 08:19:51;;;;;;;3.88;2.40;;;15.80;71.60;;;17.75;38.04;98246.97;5045319;28;20087;-72
2022/12/13 08:22:17;;;;;;;4.20;2.75;;;15.90;71.40;;;17.74;37.83;98253.63;5062822;28;20514;-72
2022/12/13 08:24:43;;;;;;;2.95;2.42;;;15.90;71.20;;;17.71;37.62;98254.28;5053400;28;20044;-72
2022/12/13 08:27:09;;;;;;;3.92;3.15;;;16.00;71.00;;;17.75;37.84;98260.69;5066776;28;20051;-72
2022/12/13 08:29:35;;;;;;;2.63;2.28;;;15.90;70.90;;;17.85;37.75;98260.31;5064397;28;20052;-72
2022/12/13 08:32:08;;;;;;;3.05;2.65;;;15.90;71.50;;;17.81;37.91;98264.88;5068154;28;20093;-72
2022/12/13 08:34:35;;;;;;;4.18;2.38;;;16.00;71.70;;;17.82;37.80;98261.00;5032197;28;20040;-72
2022/12/13 08:37:01;;;;;;;6.70;3.72;;;15.90;71.10;;;17.88;37.53;98265.13;5037049;28;20045;-72
2022/12/13 08:39:27;;;;;;;5.22;2.90;;;16.00;71.00;;;17.91;37.49;98266.41;5033080;28;20049;-72
2022/12/13 08:41:53;;;;;;;3.75;3.05;;;16.10;70.70;;;17.93;37.50;98264.94;5053724;28;20592;-72
2022/12/13 08:44:19;;;;;;;4.95;3.28;;;16.10;70.50;;;17.93;37.51;98272.38;5067469;28;20041;-72
2022/12/13 08:46:45;;;;;;;3.50;2.72;;;16.10;70.70;;;17.93;37.76;98267.69;5031722;28;20040;-72
2022/12/13 08:49:11;;;;;;;3.50;2.72;;;16.00;71.20;;;17.97;37.63;98268.63;5066252;28;20490;-72
2022/12/13 08:51:37;;;;;;;4.30;3.15;;;16.00;71.40;;;17.97;37.47;98276.06;5065330;28;20159;-72
2022/12/13 08:54:03;;;;;;;5.38;3.10;;;16.00;71.20;;;17.96;37.40;98277.19;5052242;28;20488;-72
2022/12/13 08:56:29;;;;;;;3.33;2.60;;;16.10;71.10;;;18.03;37.37;98271.16;5065817;28;20592;-72
2022/12/13 08:58:56;;;;;;;4.82;3.20;;;16.10;70.80;;;18.00;37.37;98269.91;5029173;28;20106;-72
2022/12/13 09:01:21;;;;;;;6.05;3.45;;;16.10;70.80;;;18.02;37.27;98275.06;5034465;28;20468;-72
2022/12/13 09:03:48;;;;;;;3.28;2.53;;;16.10;71.00;;;18.08;37.66;98273.69;5048990;28;20048;-72
2022/12/13 09:06:15;;;;;;;3.17;2.78;;;16.20;71.20;;;18.08;37.58;98277.25;5065870;28;20041;-72
2022/12/13 09:08:42;;;;;;;3.60;2.67;;;16.20;71.30;;;18.10;37.40;98276.91;5023288;28;20534;-72
2022/12/13 09:11:09;;;;;;;4.00;2.90;;;16.20;71.10;;;18.14;37.06;98284.16;5067711;28;20044;-72
2022/12/13 09:13:36;;;;;;;4.45;3.17;;;16.20;70.80;;;18.14;37.11;98270.44;5033643;28;20041;-72
2022/12/13 09:16:08;;;;;;;4.32;3.00;;;16.20;70.60;;;18.19;37.40;98274.88;5034709;28;20769;-72
2022/12/13 09:18:34;;;;;;;;;;;16.20;70.90;;;18.17;37.39;98277.19;5003440;28;20076;-72
2022/12/13 09:21:05;;;;;;;3.28;2.22;;;16.20;71.00;;;18.17;37.50;98269.75;5047658;28;19924;-72
2022/12/13 09:23:31;;;;;;;2.78;2.45;;;16.20;71.00;;;18.17;37.26;98269.75;5035901;28;20044;-72
2022/12/13 09:25:59;;;;;;;2.92;2.63;;;16.30;70.90;;;18.18;37.38;98267.81;5033034;28;20047;-72
2022/12/13 09:28:26;;;;;;;4.05;3.10;;;16.30;70.70;;;18.26;37.21;98266.13;5015655;28;20044;-72
2022/12/13 09:30:52;;;;;;;3.08;2.75;;;16.30;70.70;;;18.27;37.31;98260.31;5035662;28;20468;-72
2022/12/13 09:33:18;;;;;;;4.68;2.85;;;16.40;70.60;;;18.27;37.32;98267.72;5067571;28;20036;-72
2022/12/13 09:35:44;;;;;;;6.07;3.15;;;16.40;70.90;;;18.34;37.35;98260.56;5046270;28;20389;-72
2022/12/13 09:38:11;;;;;;;3.70;2.65;;;16.40;71.10;;;18.39;37.22;98268.59;5064740;28;20041;-72
2022/12/13 09:40:37;;;;;;;3.78;2.78;;;16.40;71.10;;;18.35;37.11;98256.66;5065451;28;20467;-72
2022/12/13 09:43:03;;;;;;;6.55;3.35;;;16.40;70.90;;;18.38;36.79;98266.97;5028901;28;20554;-72
2022/12/13 09:45:33;;;;;;;3.60;2.90;;;16.40;70.60;;;18.40;37.04;98270.19;5037671;28;20040;-72
2022/12/13 09:48:00;;;;;;;5.78;3.13;;;16.40;70.60;;;18.41;36.95;98270.97;5018001;28;20036;-72
2022/12/13 09:50:33;;;;;;;3.28;2.97;;;16.40;70.50;;;18.50;37.21;98273.66;5029158;28;20098;-72
2022/12/13 09:53:00;;;;;;;4.53;3.13;;;16.40;70.80;;;18.62;36.98;98279.16;5033927;28;20032;-72
2022/12/13 09:55:46;;;;;;;3.17;2.63;;;16.50;71.00;;;18.56;36.71;98277.78;5021749;28;20093;-72
2022/12/13 09:58:30;;;;;;;4.05;2.90;;;16.60;70.60;;;18.57;36.95;98280.19;5027874;28;20044;-72
2022/12/13 10:00:57;;;;;;;4.82;3.05;;;16.60;70.40;;;18.52;36.92;98272.16;5019296;28;20540;-72
2022/12/13 10:03:24;;;;;;;4.22;3.00;;;16.50;70.50;;;18.48;36.87;98275.94;5019391;28;20043;-72
2022/12/13 10:05:57;;;;;;;4.47;2.50;;;16.60;70.40;;;18.56;36.90;98277.78;5031822;28;20049;-72
2022/12/13 10:09:01;;;;;;;4.43;3.22;;;16.60;70.60;;;18.56;37.22;98278.56;5067608;28;20040;-72
2022/12/13 10:11:28;;;;;;;4.35;2.88;;;16.60;70.80;;;18.53;36.92;98276.50;5052928;28;20065;-72
2022/12/13 10:14:01;;;;;;;6.03;3.08;;;16.60;70.80;;;18.56;36.89;98280.53;5020551;28;20040;-72
2022/12/13 10:16:33;;;;;;;3.03;2.70;;;16.50;70.40;;;18.55;36.73;98276.19;5032099;28;20037;-72
2022/12/13 10:19:01;;;;;;;3.80;3.03;;;16.60;70.50;;;18.61;36.75;98263.81;5045428;28;20419;-72
2022/12/13 10:21:34;;;;;;;3.85;2.80;;;16.60;70.20;;;18.58;37.02;98272.75;5038299;28;20532;-72
2022/12/13 10:24:26;;;;;;;3.65;2.67;;;16.60;70.60;;;18.63;37.10;98272.53;5018560;28;20509;-72
2022/12/13 10:26:56;;;;;;;3.22;2.92;;;16.60;70.90;;;18.65;37.04;98260.06;5065684;28;20041;-72
2022/12/13 10:29:23;;;;;;;4.03;3.00;;;16.60;70.90;;;18.59;36.81;98275.16;5054733;28;20422;-72
2022/12/13 10:31:50;;;;;;;4.20;2.60;;;16.70;70.50;;;18.59;36.93;98272.41;5037755;28;20443;-72
2022/12/13 10:34:37;;;;;;;4.47;2.90;;;16.70;70.30;;;18.61;36.59;98266.56;5041225;28;20445;-72